sensor_id;sensor_type;location;lat;lon;timestamp;temperature;humidity
59301;DHT22;45073;52.740;6.784;2023-05-10T00:01:56;14.30;99.90
59301;DHT22;45073;52.740;6.784;2023-05-10T00:04:21;14.30;99.90
59301;DHT22;45073;52.740;6.784;2023-05-10T00:06:47;14.20;99.90
59301;DHT22;45073;52.740;6.784;2023-05-10T00:09:13;14.10;99.90
59301;DHT22;45073;52.740;6.784;2023-05-10T00:11:39;14.10;99.90
59301;DHT22;45073;52.740;6.784;2023-05-10T00:14:05;14.10;99.90
59301;DHT22;45073;52.740;6.784;2023-05-10T00:16:31;14.10;99.90
59301;DHT22;45073;52.740;6.784;2023-05-10T00:18:56;14.00;99.90
59301;DHT22;45073;52.740;6.784;2023-05-10T00:21:22;14.00;99.90
59301;DHT22;45073;52.740;6.784;2023-05-10T00:23:47;14.00;99.90
59301;DHT22;45073;52.740;6.784;2023-05-10T00:26:13;14.00;99.90
59301;DHT22;45073;52.740;6.784;2023-05-10T00:28:39;13.90;99.90
59301;DHT22;45073;52.740;6.784;2023-05-10T00:31:04;13.90;99.90
59301;DHT22;45073;52.740;6.784;2023-05-10T00:33:30;13.80;99.90
59301;DHT22;45073;52.740;6.784;2023-05-10T00:35:56;13.80;99.90
59301;DHT22;45073;52.740;6.784;2023-05-10T00:38:21;13.80;99.90
59301;DHT22;45073;52.740;6.784;2023-05-10T00:40:47;13.80;99.90
59301;DHT22;45073;52.740;6.784;2023-05-10T00:43:13;13.80;99.90
59301;DHT22;45073;52.740;6.784;2023-05-10T00:45:40;13.70;99.90
59301;DHT22;45073;52.740;6.784;2023-05-10T00:48:05;13.80;99.90
59301;DHT22;45073;52.740;6.784;2023-05-10T00:50:32;13.80;99.90
59301;DHT22;45073;52.740;6.784;2023-05-10T00:52:59;13.70;99.90
59301;DHT22;45073;52.740;6.784;2023-05-10T00:55:25;13.70;99.90
59301;DHT22;45073;52.740;6.784;2023-05-10T00:57:52;13.70;99.90
59301;DHT22;45073;52.740;6.784;2023-05-10T01:00:18;13.70;99.90
59301;DHT22;45073;52.740;6.784;2023-05-10T01:02:45;13.60;99.90
59301;DHT22;45073;52.740;6.784;2023-05-10T01:05:11;13.60;99.90
59301;DHT22;45073;52.740;6.784;2023-05-10T01:07:37;13.60;99.90
59301;DHT22;45073;52.740;6.784;2023-05-10T01:10:04;13.60;99.90
59301;DHT22;45073;52.740;6.784;2023-05-10T01:12:30;13.60;99.90
59301;DHT22;45073;52.740;6.784;2023-05-10T01:14:55;13.50;99.90
59301;DHT22;45073;52.740;6.784;2023-05-10T01:17:22;13.50;99.90
59301;DHT22;45073;52.740;6.784;2023-05-10T01:19:48;13.60;99.90
59301;DHT22;45073;52.740;6.784;2023-05-10T01:28:34;13.50;99.90
59301;DHT22;45073;52.740;6.784;2023-05-10T01:31:28;13.50;99.90
59301;DHT22;45073;52.740;6.784;2023-05-10T01:33:59;13.50;99.90
59301;DHT22;45073;52.740;6.784;2023-05-10T01:36:40;13.50;99.90
59301;DHT22;45073;52.740;6.784;2023-05-10T01:39:20;13.50;99.90
59301;DHT22;45073;52.740;6.784;2023-05-10T01:41:54;13.40;99.90
59301;DHT22;45073;52.740;6.784;2023-05-10T01:44:29;13.50;99.90
59301;DHT22;45073;52.740;6.784;2023-05-10T01:49:47;13.40;99.90
59301;DHT22;45073;52.740;6.784;2023-05-10T01:52:18;13.40;99.90
59301;DHT22;45073;52.740;6.784;2023-05-10T01:54:56;13.40;99.90
59301;DHT22;45073;52.740;6.784;2023-05-10T01:57:26;13.40;99.90
59301;DHT22;45073;52.740;6.784;2023-05-10T01:59:53;13.40;99.90
59301;DHT22;45073;52.740;6.784;2023-05-10T02:02:21;13.40;99.90
59301;DHT22;45073;52.740;6.784;2023-05-10T02:04:49;13.50;99.90
59301;DHT22;45073;52.740;6.784;2023-05-10T02:07:16;13.40;99.90
59301;DHT22;45073;52.740;6.784;2023-05-10T02:09:44;13.40;99.90
59301;DHT22;45073;52.740;6.784;2023-05-10T02:12:13;13.40;99.90
59301;DHT22;45073;52.740;6.784;2023-05-10T02:14:41;13.40;99.90
59301;DHT22;45073;52.740;6.784;2023-05-10T02:17:08;13.40;99.90
59301;DHT22;45073;52.740;6.784;2023-05-10T02:19:36;13.40;99.90
59301;DHT22;45073;52.740;6.784;2023-05-10T02:22:03;13.40;99.90
59301;DHT22;45073;52.740;6.784;2023-05-10T02:24:29;13.30;99.90
59301;DHT22;45073;52.740;6.784;2023-05-10T02:26:56;13.40;99.90
59301;DHT22;45073;52.740;6.784;2023-05-10T02:29:24;13.30;99.90
59301;DHT22;45073;52.740;6.784;2023-05-10T02:31:54;13.30;99.90
59301;DHT22;45073;52.740;6.784;2023-05-10T02:34:26;13.30;99.90
59301;DHT22;45073;52.740;6.784;2023-05-10T02:36:53;13.20;99.90
59301;DHT22;45073;52.740;6.784;2023-05-10T02:39:20;13.20;99.90
59301;DHT22;45073;52.740;6.784;2023-05-10T02:41:48;13.20;99.90
59301;DHT22;45073;52.740;6.784;2023-05-10T02:44:15;13.20;99.90
59301;DHT22;45073;52.740;6.784;2023-05-10T02:46:42;13.30;99.90
59301;DHT22;45073;52.740;6.784;2023-05-10T02:49:08;13.30;99.90
59301;DHT22;45073;52.740;6.784;2023-05-10T02:51:36;13.30;99.90
59301;DHT22;45073;52.740;6.784;2023-05-10T02:54:08;13.20;99.90
59301;DHT22;45073;52.740;6.784;2023-05-10T02:56:36;13.20;99.90
59301;DHT22;45073;52.740;6.784;2023-05-10T02:59:06;13.20;99.90
59301;DHT22;45073;52.740;6.784;2023-05-10T03:01:32;13.20;99.90
59301;DHT22;45073;52.740;6.784;2023-05-10T03:03:57;13.20;99.90
59301;DHT22;45073;52.740;6.784;2023-05-10T03:06:23;13.10;99.90
59301;DHT22;45073;52.740;6.784;2023-05-10T03:08:49;13.20;99.90
59301;DHT22;45073;52.740;6.784;2023-05-10T03:16:38;13.20;99.90
59301;DHT22;45073;52.740;6.784;2023-05-10T03:21:38;13.10;99.90
59301;DHT22;45073;52.740;6.784;2023-05-10T03:24:07;13.10;99.90
59301;DHT22;45073;52.740;6.784;2023-05-10T03:26:34;13.10;99.90
59301;DHT22;45073;52.740;6.784;2023-05-10T03:29:02;13.10;99.90
59301;DHT22;45073;52.740;6.784;2023-05-10T03:31:28;13.10;99.90
59301;DHT22;45073;52.740;6.784;2023-05-10T03:33:54;13.20;99.90
59301;DHT22;45073;52.740;6.784;2023-05-10T03:36:19;13.20;99.90
59301;DHT22;45073;52.740;6.784;2023-05-10T03:38:45;13.20;99.90
59301;DHT22;45073;52.740;6.784;2023-05-10T03:41:11;13.20;99.90
59301;DHT22;45073;52.740;6.784;2023-05-10T03:43:36;13.10;99.90
59301;DHT22;45073;52.740;6.784;2023-05-10T03:46:05;13.10;99.90
59301;DHT22;45073;52.740;6.784;2023-05-10T03:48:32;13.00;99.90
59301;DHT22;45073;52.740;6.784;2023-05-10T03:50:58;13.00;99.90
59301;DHT22;45073;52.740;6.784;2023-05-10T03:53:24;13.00;99.90
59301;DHT22;45073;52.740;6.784;2023-05-10T03:55:49;13.00;99.90
59301;DHT22;45073;52.740;6.784;2023-05-10T03:58:15;13.00;99.90
59301;DHT22;45073;52.740;6.784;2023-05-10T04:00:41;13.00;99.90
59301;DHT22;45073;52.740;6.784;2023-05-10T04:03:10;13.10;99.90
59301;DHT22;45073;52.740;6.784;2023-05-10T04:05:36;13.00;99.90
59301;DHT22;45073;52.740;6.784;2023-05-10T04:08:02;13.00;99.90
59301;DHT22;45073;52.740;6.784;2023-05-10T04:10:28;12.90;99.90
59301;DHT22;45073;52.740;6.784;2023-05-10T04:12:53;13.00;99.90
59301;DHT22;45073;52.740;6.784;2023-05-10T04:15:19;13.00;99.90
59301;DHT22;45073;52.740;6.784;2023-05-10T04:17:45;13.00;99.90
59301;DHT22;45073;52.740;6.784;2023-05-10T04:20:11;13.00;99.90
59301;DHT22;45073;52.740;6.784;2023-05-10T04:22:37;12.90;99.90
59301;DHT22;45073;52.740;6.784;2023-05-10T04:25:03;13.00;99.90
59301;DHT22;45073;52.740;6.784;2023-05-10T04:27:28;12.90;99.90
59301;DHT22;45073;52.740;6.784;2023-05-10T04:29:54;13.00;99.90
59301;DHT22;45073;52.740;6.784;2023-05-10T04:32:19;13.00;99.90
59301;DHT22;45073;52.740;6.784;2023-05-10T04:34:46;12.90;99.90
59301;DHT22;45073;52.740;6.784;2023-05-10T04:37:11;13.00;99.90
59301;DHT22;45073;52.740;6.784;2023-05-10T04:39:37;13.00;99.90
59301;DHT22;45073;52.740;6.784;2023-05-10T04:42:03;13.00;99.90
59301;DHT22;45073;52.740;6.784;2023-05-10T04:44:29;13.00;99.90
59301;DHT22;45073;52.740;6.784;2023-05-10T04:46:55;13.00;99.90
59301;DHT22;45073;52.740;6.784;2023-05-10T04:49:20;13.00;99.90
59301;DHT22;45073;52.740;6.784;2023-05-10T04:51:47;13.00;99.90
59301;DHT22;45073;52.740;6.784;2023-05-10T04:54:12;13.00;99.90
59301;DHT22;45073;52.740;6.784;2023-05-10T04:56:38;12.90;99.90
59301;DHT22;45073;52.740;6.784;2023-05-10T04:59:03;12.90;99.90
59301;DHT22;45073;52.740;6.784;2023-05-10T05:01:29;13.00;99.90
59301;DHT22;45073;52.740;6.784;2023-05-10T05:03:55;13.00;99.90
59301;DHT22;45073;52.740;6.784;2023-05-10T05:06:20;13.00;99.90
59301;DHT22;45073;52.740;6.784;2023-05-10T05:08:46;13.00;99.90
59301;DHT22;45073;52.740;6.784;2023-05-10T05:11:12;13.00;99.90
59301;DHT22;45073;52.740;6.784;2023-05-10T05:13:37;13.00;99.90
59301;DHT22;45073;52.740;6.784;2023-05-10T05:16:04;12.90;99.90
59301;DHT22;45073;52.740;6.784;2023-05-10T05:18:30;12.90;99.90
59301;DHT22;45073;52.740;6.784;2023-05-10T05:20:56;12.90;99.90
59301;DHT22;45073;52.740;6.784;2023-05-10T05:23:21;12.90;99.90
59301;DHT22;45073;52.740;6.784;2023-05-10T05:25:51;12.90;99.90
59301;DHT22;45073;52.740;6.784;2023-05-10T05:28:18;12.90;99.90
59301;DHT22;45073;52.740;6.784;2023-05-10T05:30:43;12.90;99.90
59301;DHT22;45073;52.740;6.784;2023-05-10T05:33:09;13.00;99.90
59301;DHT22;45073;52.740;6.784;2023-05-10T05:35:35;13.00;99.90
59301;DHT22;45073;52.740;6.784;2023-05-10T05:38:00;13.00;99.90
59301;DHT22;45073;52.740;6.784;2023-05-10T05:40:26;12.90;99.90
59301;DHT22;45073;52.740;6.784;2023-05-10T05:42:52;12.90;99.90
59301;DHT22;45073;52.740;6.784;2023-05-10T05:45:17;13.00;99.90
59301;DHT22;45073;52.740;6.784;2023-05-10T05:47:43;12.90;99.90
59301;DHT22;45073;52.740;6.784;2023-05-10T05:50:09;13.00;99.90
59301;DHT22;45073;52.740;6.784;2023-05-10T05:52:35;13.00;99.90
59301;DHT22;45073;52.740;6.784;2023-05-10T05:55:01;13.00;99.90
59301;DHT22;45073;52.740;6.784;2023-05-10T05:57:27;13.00;99.90
59301;DHT22;45073;52.740;6.784;2023-05-10T05:59:52;13.00;99.90
59301;DHT22;45073;52.740;6.784;2023-05-10T06:02:18;13.00;99.90
59301;DHT22;45073;52.740;6.784;2023-05-10T06:04:43;13.10;99.90
59301;DHT22;45073;52.740;6.784;2023-05-10T06:07:09;13.00;99.90
59301;DHT22;45073;52.740;6.784;2023-05-10T06:09:35;13.00;99.90
59301;DHT22;45073;52.740;6.784;2023-05-10T06:12:00;13.00;99.90
59301;DHT22;45073;52.740;6.784;2023-05-10T06:14:26;13.10;99.90
59301;DHT22;45073;52.740;6.784;2023-05-10T06:16:52;13.10;99.90
59301;DHT22;45073;52.740;6.784;2023-05-10T06:19:18;13.10;99.90
59301;DHT22;45073;52.740;6.784;2023-05-10T06:21:43;13.10;99.90
59301;DHT22;45073;52.740;6.784;2023-05-10T06:24:09;13.10;99.90
59301;DHT22;45073;52.740;6.784;2023-05-10T06:26:35;13.10;99.90
59301;DHT22;45073;52.740;6.784;2023-05-10T06:29:00;13.10;99.90
59301;DHT22;45073;52.740;6.784;2023-05-10T06:31:26;13.20;99.90
59301;DHT22;45073;52.740;6.784;2023-05-10T06:33:52;13.20;99.90
59301;DHT22;45073;52.740;6.784;2023-05-10T06:36:18;13.20;99.90
59301;DHT22;45073;52.740;6.784;2023-05-10T06:38:44;13.30;99.90
59301;DHT22;45073;52.740;6.784;2023-05-10T06:41:09;13.30;99.90
59301;DHT22;45073;52.740;6.784;2023-05-10T06:43:35;13.40;99.90
59301;DHT22;45073;52.740;6.784;2023-05-10T06:46:00;13.50;99.90
59301;DHT22;45073;52.740;6.784;2023-05-10T06:48:26;13.40;99.90
59301;DHT22;45073;52.740;6.784;2023-05-10T06:50:51;13.40;99.90
59301;DHT22;45073;52.740;6.784;2023-05-10T06:53:17;13.50;99.90
59301;DHT22;45073;52.740;6.784;2023-05-10T06:55:43;13.50;99.90
59301;DHT22;45073;52.740;6.784;2023-05-10T06:58:08;13.60;99.90
59301;DHT22;45073;52.740;6.784;2023-05-10T07:00:34;13.60;99.90
59301;DHT22;45073;52.740;6.784;2023-05-10T07:02:59;13.60;99.90
59301;DHT22;45073;52.740;6.784;2023-05-10T07:05:25;13.70;99.90
59301;DHT22;45073;52.740;6.784;2023-05-10T07:07:53;13.70;99.90
59301;DHT22;45073;52.740;6.784;2023-05-10T07:10:18;13.70;99.90
59301;DHT22;45073;52.740;6.784;2023-05-10T07:12:44;13.70;99.90
59301;DHT22;45073;52.740;6.784;2023-05-10T07:15:10;13.70;99.90
59301;DHT22;45073;52.740;6.784;2023-05-10T07:17:35;13.70;99.90
59301;DHT22;45073;52.740;6.784;2023-05-10T07:20:01;13.70;99.90
59301;DHT22;45073;52.740;6.784;2023-05-10T07:22:27;13.70;99.90
59301;DHT22;45073;52.740;6.784;2023-05-10T07:24:52;13.70;99.90
59301;DHT22;45073;52.740;6.784;2023-05-10T07:27:18;13.70;99.90
59301;DHT22;45073;52.740;6.784;2023-05-10T07:29:44;13.80;99.90
59301;DHT22;45073;52.740;6.784;2023-05-10T07:32:09;13.80;99.90
59301;DHT22;45073;52.740;6.784;2023-05-10T07:34:35;13.70;99.90
59301;DHT22;45073;52.740;6.784;2023-05-10T07:37:01;13.80;99.90
59301;DHT22;45073;52.740;6.784;2023-05-10T07:39:27;13.80;99.90
59301;DHT22;45073;52.740;6.784;2023-05-10T07:41:53;13.70;99.90
59301;DHT22;45073;52.740;6.784;2023-05-10T07:44:19;13.80;99.90
59301;DHT22;45073;52.740;6.784;2023-05-10T07:46:46;13.80;99.90
59301;DHT22;45073;52.740;6.784;2023-05-10T07:49:11;13.80;99.90
59301;DHT22;45073;52.740;6.784;2023-05-10T07:51:37;13.80;99.90
59301;DHT22;45073;52.740;6.784;2023-05-10T07:54:03;13.70;99.90
59301;DHT22;45073;52.740;6.784;2023-05-10T07:56:30;13.80;99.90
59301;DHT22;45073;52.740;6.784;2023-05-10T07:58:57;13.80;99.90
59301;DHT22;45073;52.740;6.784;2023-05-10T08:01:24;13.90;99.90
59301;DHT22;45073;52.740;6.784;2023-05-10T08:03:49;13.90;99.90
59301;DHT22;45073;52.740;6.784;2023-05-10T08:06:17;14.00;99.90
59301;DHT22;45073;52.740;6.784;2023-05-10T08:08:44;14.10;99.90
59301;DHT22;45073;52.740;6.784;2023-05-10T08:11:17;14.20;99.90
59301;DHT22;45073;52.740;6.784;2023-05-10T08:13:44;14.20;99.90
59301;DHT22;45073;52.740;6.784;2023-05-10T08:16:10;14.20;99.90
59301;DHT22;45073;52.740;6.784;2023-05-10T08:18:36;14.20;99.90
59301;DHT22;45073;52.740;6.784;2023-05-10T08:21:02;14.30;99.90
59301;DHT22;45073;52.740;6.784;2023-05-10T08:23:27;14.30;99.90
59301;DHT22;45073;52.740;6.784;2023-05-10T08:25:53;14.40;99.90
59301;DHT22;45073;52.740;6.784;2023-05-10T08:28:18;14.40;99.90
59301;DHT22;45073;52.740;6.784;2023-05-10T08:30:44;14.30;99.90
59301;DHT22;45073;52.740;6.784;2023-05-10T08:33:10;14.30;99.90
59301;DHT22;45073;52.740;6.784;2023-05-10T08:35:35;14.30;99.90
59301;DHT22;45073;52.740;6.784;2023-05-10T08:38:01;14.30;99.90
59301;DHT22;45073;52.740;6.784;2023-05-10T08:40:27;14.40;99.90
59301;DHT22;45073;52.740;6.784;2023-05-10T08:42:59;14.50;99.90
59301;DHT22;45073;52.740;6.784;2023-05-10T08:45:33;14.60;99.90
59301;DHT22;45073;52.740;6.784;2023-05-10T08:48:01;14.50;99.90
59301;DHT22;45073;52.740;6.784;2023-05-10T08:50:27;14.50;99.90
59301;DHT22;45073;52.740;6.784;2023-05-10T08:52:58;14.50;99.90
59301;DHT22;45073;52.740;6.784;2023-05-10T08:55:24;14.50;99.90
59301;DHT22;45073;52.740;6.784;2023-05-10T08:57:50;14.60;99.90
59301;DHT22;45073;52.740;6.784;2023-05-10T09:00:17;14.60;99.90
59301;DHT22;45073;52.740;6.784;2023-05-10T09:02:43;14.60;99.90
59301;DHT22;45073;52.740;6.784;2023-05-10T09:05:11;14.60;99.90
59301;DHT22;45073;52.740;6.784;2023-05-10T09:07:37;14.60;99.90
59301;DHT22;45073;52.740;6.784;2023-05-10T09:10:04;14.70;99.90
59301;DHT22;45073;52.740;6.784;2023-05-10T09:12:30;14.70;99.90
59301;DHT22;45073;52.740;6.784;2023-05-10T09:14:56;14.70;99.90
59301;DHT22;45073;52.740;6.784;2023-05-10T09:17:24;14.70;99.90
59301;DHT22;45073;52.740;6.784;2023-05-10T09:19:50;14.70;99.90
59301;DHT22;45073;52.740;6.784;2023-05-10T09:22:22;14.80;99.90
59301;DHT22;45073;52.740;6.784;2023-05-10T09:24:48;14.80;99.90
59301;DHT22;45073;52.740;6.784;2023-05-10T09:27:28;14.90;99.90
59301;DHT22;45073;52.740;6.784;2023-05-10T09:29:53;14.90;99.90
59301;DHT22;45073;52.740;6.784;2023-05-10T09:32:20;14.90;99.90
59301;DHT22;45073;52.740;6.784;2023-05-10T09:34:49;15.00;99.90
59301;DHT22;45073;52.740;6.784;2023-05-10T09:37:15;15.10;99.90
59301;DHT22;45073;52.740;6.784;2023-05-10T09:39:41;15.20;99.90
59301;DHT22;45073;52.740;6.784;2023-05-10T09:42:10;15.30;99.90
59301;DHT22;45073;52.740;6.784;2023-05-10T09:44:36;15.20;99.90
59301;DHT22;45073;52.740;6.784;2023-05-10T09:47:02;15.20;99.90
59301;DHT22;45073;52.740;6.784;2023-05-10T09:49:28;15.20;99.90
59301;DHT22;45073;52.740;6.784;2023-05-10T09:52:05;15.30;99.90
59301;DHT22;45073;52.740;6.784;2023-05-10T09:54:31;15.30;99.90
59301;DHT22;45073;52.740;6.784;2023-05-10T09:56:57;15.20;99.90
59301;DHT22;45073;52.740;6.784;2023-05-10T09:59:25;15.20;99.90
59301;DHT22;45073;52.740;6.784;2023-05-10T10:01:52;15.20;99.90
59301;DHT22;45073;52.740;6.784;2023-05-10T10:04:20;15.10;99.90
59301;DHT22;45073;52.740;6.784;2023-05-10T10:06:46;15.20;99.90
59301;DHT22;45073;52.740;6.784;2023-05-10T10:09:24;15.30;99.90
59301;DHT22;45073;52.740;6.784;2023-05-10T10:11:49;15.30;99.90
59301;DHT22;45073;52.740;6.784;2023-05-10T10:14:18;15.30;99.90
59301;DHT22;45073;52.740;6.784;2023-05-10T10:16:43;15.30;99.90
59301;DHT22;45073;52.740;6.784;2023-05-10T10:19:10;15.30;99.90
59301;DHT22;45073;52.740;6.784;2023-05-10T10:21:35;15.30;99.90
59301;DHT22;45073;52.740;6.784;2023-05-10T10:24:01;15.30;99.90
59301;DHT22;45073;52.740;6.784;2023-05-10T10:26:27;15.30;99.90
59301;DHT22;45073;52.740;6.784;2023-05-10T10:31:41;15.40;99.90
59301;DHT22;45073;52.740;6.784;2023-05-10T10:34:09;15.50;99.90
59301;DHT22;45073;52.740;6.784;2023-05-10T10:36:47;15.60;99.90
59301;DHT22;45073;52.740;6.784;2023-05-10T10:39:14;15.70;99.90
59301;DHT22;45073;52.740;6.784;2023-05-10T10:41:53;15.60;99.90
59301;DHT22;45073;52.740;6.784;2023-05-10T10:50:06;15.50;99.90
59301;DHT22;45073;52.740;6.784;2023-05-10T10:52:38;15.50;99.90
59301;DHT22;45073;52.740;6.784;2023-05-10T10:55:16;15.50;99.90
59301;DHT22;45073;52.740;6.784;2023-05-10T11:02:49;15.60;99.90
59301;DHT22;45073;52.740;6.784;2023-05-10T11:05:35;15.60;99.90
59301;DHT22;45073;52.740;6.784;2023-05-10T11:08:12;15.60;99.90
59301;DHT22;45073;52.740;6.784;2023-05-10T11:10:39;15.70;99.90
59301;DHT22;45073;52.740;6.784;2023-05-10T11:13:07;15.70;99.90
59301;DHT22;45073;52.740;6.784;2023-05-10T11:15:38;15.80;99.90
59301;DHT22;45073;52.740;6.784;2023-05-10T11:18:23;15.90;99.90
59301;DHT22;45073;52.740;6.784;2023-05-10T11:21:00;15.90;99.90
59301;DHT22;45073;52.740;6.784;2023-05-10T11:26:07;16.00;99.90
59301;DHT22;45073;52.740;6.784;2023-05-10T11:28:44;16.00;99.90
59301;DHT22;45073;52.740;6.784;2023-05-10T11:31:13;16.10;99.90
59301;DHT22;45073;52.740;6.784;2023-05-10T11:33:52;16.10;99.90
59301;DHT22;45073;52.740;6.784;2023-05-10T11:36:20;16.20;99.90
59301;DHT22;45073;52.740;6.784;2023-05-10T11:38:46;16.10;99.90
59301;DHT22;45073;52.740;6.784;2023-05-10T11:41:13;16.10;99.90
59301;DHT22;45073;52.740;6.784;2023-05-10T11:43:39;16.10;99.90
59301;DHT22;45073;52.740;6.784;2023-05-10T11:46:10;16.10;99.90
59301;DHT22;45073;52.740;6.784;2023-05-10T11:48:38;16.10;99.90
59301;DHT22;45073;52.740;6.784;2023-05-10T11:51:04;16.10;99.90
59301;DHT22;45073;52.740;6.784;2023-05-10T11:53:31;16.10;99.90
59301;DHT22;45073;52.740;6.784;2023-05-10T11:56:08;16.10;99.90
59301;DHT22;45073;52.740;6.784;2023-05-10T11:58:34;16.10;99.90
59301;DHT22;45073;52.740;6.784;2023-05-10T12:01:01;16.10;99.90
59301;DHT22;45073;52.740;6.784;2023-05-10T12:03:28;16.00;99.90
59301;DHT22;45073;52.740;6.784;2023-05-10T12:05:55;16.00;99.90
59301;DHT22;45073;52.740;6.784;2023-05-10T12:08:23;16.00;99.90
59301;DHT22;45073;52.740;6.784;2023-05-10T12:10:48;16.00;99.90
59301;DHT22;45073;52.740;6.784;2023-05-10T12:13:14;16.00;99.90
59301;DHT22;45073;52.740;6.784;2023-05-10T12:15:41;16.00;99.90
59301;DHT22;45073;52.740;6.784;2023-05-10T12:18:11;15.90;99.90
59301;DHT22;45073;52.740;6.784;2023-05-10T12:20:37;15.80;99.90
59301;DHT22;45073;52.740;6.784;2023-05-10T12:23:04;15.90;99.90
59301;DHT22;45073;52.740;6.784;2023-05-10T12:25:32;15.80;99.90
59301;DHT22;45073;52.740;6.784;2023-05-10T12:27:59;15.80;99.90
59301;DHT22;45073;52.740;6.784;2023-05-10T12:30:31;15.80;99.90
59301;DHT22;45073;52.740;6.784;2023-05-10T12:33:01;15.80;99.90
59301;DHT22;45073;52.740;6.784;2023-05-10T12:35:31;15.90;99.90
59301;DHT22;45073;52.740;6.784;2023-05-10T12:37:58;15.90;99.90
59301;DHT22;45073;52.740;6.784;2023-05-10T12:40:23;15.90;99.90
59301;DHT22;45073;52.740;6.784;2023-05-10T12:42:49;15.90;99.90
59301;DHT22;45073;52.740;6.784;2023-05-10T12:45:15;16.00;99.90
59301;DHT22;45073;52.740;6.784;2023-05-10T12:47:42;15.90;99.90
59301;DHT22;45073;52.740;6.784;2023-05-10T12:50:08;16.00;99.90
59301;DHT22;45073;52.740;6.784;2023-05-10T12:52:34;16.00;99.90
59301;DHT22;45073;52.740;6.784;2023-05-10T12:55:00;16.00;99.90
59301;DHT22;45073;52.740;6.784;2023-05-10T12:57:26;16.10;99.90
59301;DHT22;45073;52.740;6.784;2023-05-10T12:59:54;16.20;99.90
59301;DHT22;45073;52.740;6.784;2023-05-10T13:02:19;16.20;99.90
59301;DHT22;45073;52.740;6.784;2023-05-10T13:04:46;16.20;99.90
59301;DHT22;45073;52.740;6.784;2023-05-10T13:07:12;16.30;99.90
59301;DHT22;45073;52.740;6.784;2023-05-10T13:09:38;16.20;99.90
59301;DHT22;45073;52.740;6.784;2023-05-10T13:12:04;16.20;99.90
59301;DHT22;45073;52.740;6.784;2023-05-10T13:14:30;16.30;99.90
59301;DHT22;45073;52.740;6.784;2023-05-10T13:16:55;16.30;99.90
59301;DHT22;45073;52.740;6.784;2023-05-10T13:19:21;16.30;99.90
59301;DHT22;45073;52.740;6.784;2023-05-10T13:21:47;16.30;99.90
59301;DHT22;45073;52.740;6.784;2023-05-10T13:24:13;16.30;99.90
59301;DHT22;45073;52.740;6.784;2023-05-10T13:26:39;16.30;99.90
59301;DHT22;45073;52.740;6.784;2023-05-10T13:29:06;16.30;99.90
59301;DHT22;45073;52.740;6.784;2023-05-10T13:31:32;16.30;99.90
59301;DHT22;45073;52.740;6.784;2023-05-10T13:33:57;16.30;99.90
59301;DHT22;45073;52.740;6.784;2023-05-10T13:36:23;16.30;99.90
59301;DHT22;45073;52.740;6.784;2023-05-10T13:38:48;16.40;99.90
59301;DHT22;45073;52.740;6.784;2023-05-10T13:41:14;16.40;99.90
59301;DHT22;45073;52.740;6.784;2023-05-10T13:43:40;16.40;99.90
59301;DHT22;45073;52.740;6.784;2023-05-10T13:46:05;16.50;99.90
59301;DHT22;45073;52.740;6.784;2023-05-10T13:48:31;16.50;99.90
59301;DHT22;45073;52.740;6.784;2023-05-10T13:50:56;16.60;99.90
59301;DHT22;45073;52.740;6.784;2023-05-10T13:53:22;16.60;99.90
59301;DHT22;45073;52.740;6.784;2023-05-10T13:55:48;16.70;99.90
59301;DHT22;45073;52.740;6.784;2023-05-10T13:58:14;16.80;99.90
59301;DHT22;45073;52.740;6.784;2023-05-10T14:00:39;16.90;99.90
59301;DHT22;45073;52.740;6.784;2023-05-10T14:03:05;16.90;99.90
59301;DHT22;45073;52.740;6.784;2023-05-10T14:05:32;17.00;99.90
59301;DHT22;45073;52.740;6.784;2023-05-10T14:07:58;17.00;99.90
59301;DHT22;45073;52.740;6.784;2023-05-10T14:10:23;17.10;99.90
59301;DHT22;45073;52.740;6.784;2023-05-10T14:12:50;17.20;99.90
59301;DHT22;45073;52.740;6.784;2023-05-10T14:15:15;17.20;99.90
59301;DHT22;45073;52.740;6.784;2023-05-10T14:17:41;17.30;99.90
59301;DHT22;45073;52.740;6.784;2023-05-10T14:20:07;17.30;99.90
59301;DHT22;45073;52.740;6.784;2023-05-10T14:22:33;17.40;99.90
59301;DHT22;45073;52.740;6.784;2023-05-10T14:25:00;17.40;99.90
59301;DHT22;45073;52.740;6.784;2023-05-10T14:27:25;17.40;99.90
59301;DHT22;45073;52.740;6.784;2023-05-10T14:29:51;17.40;99.90
59301;DHT22;45073;52.740;6.784;2023-05-10T14:32:18;17.40;99.90
59301;DHT22;45073;52.740;6.784;2023-05-10T14:34:44;17.40;99.90
59301;DHT22;45073;52.740;6.784;2023-05-10T14:37:13;17.40;99.90
59301;DHT22;45073;52.740;6.784;2023-05-10T14:39:39;17.30;99.90
59301;DHT22;45073;52.740;6.784;2023-05-10T14:42:04;17.20;99.90
59301;DHT22;45073;52.740;6.784;2023-05-10T14:44:30;17.10;99.90
59301;DHT22;45073;52.740;6.784;2023-05-10T14:46:56;17.00;99.90
59301;DHT22;45073;52.740;6.784;2023-05-10T14:49:22;16.90;99.90
59301;DHT22;45073;52.740;6.784;2023-05-10T14:51:50;16.90;99.90
59301;DHT22;45073;52.740;6.784;2023-05-10T14:54:16;16.80;99.90
59301;DHT22;45073;52.740;6.784;2023-05-10T14:56:42;16.80;99.90
59301;DHT22;45073;52.740;6.784;2023-05-10T14:59:08;16.80;99.90
59301;DHT22;45073;52.740;6.784;2023-05-10T15:01:34;16.80;99.90
59301;DHT22;45073;52.740;6.784;2023-05-10T15:04:05;16.80;99.90
59301;DHT22;45073;52.740;6.784;2023-05-10T15:06:32;16.70;99.90
59301;DHT22;45073;52.740;6.784;2023-05-10T15:08:58;16.60;99.90
59301;DHT22;45073;52.740;6.784;2023-05-10T15:11:23;16.60;99.90
59301;DHT22;45073;52.740;6.784;2023-05-10T15:13:49;16.50;99.90
59301;DHT22;45073;52.740;6.784;2023-05-10T15:16:15;16.50;99.90
59301;DHT22;45073;52.740;6.784;2023-05-10T15:18:40;16.40;99.90
59301;DHT22;45073;52.740;6.784;2023-05-10T15:21:06;16.40;99.90
59301;DHT22;45073;52.740;6.784;2023-05-10T15:23:31;16.30;99.90
59301;DHT22;45073;52.740;6.784;2023-05-10T15:25:57;16.40;99.90
59301;DHT22;45073;52.740;6.784;2023-05-10T15:28:23;16.30;99.90
59301;DHT22;45073;52.740;6.784;2023-05-10T15:30:48;16.30;99.90
59301;DHT22;45073;52.740;6.784;2023-05-10T15:33:14;16.20;99.90
59301;DHT22;45073;52.740;6.784;2023-05-10T15:35:40;16.30;99.90
59301;DHT22;45073;52.740;6.784;2023-05-10T15:38:06;16.30;99.90
59301;DHT22;45073;52.740;6.784;2023-05-10T15:40:32;16.20;99.90
59301;DHT22;45073;52.740;6.784;2023-05-10T15:42:58;16.20;99.90
59301;DHT22;45073;52.740;6.784;2023-05-10T15:45:23;16.20;99.90
59301;DHT22;45073;52.740;6.784;2023-05-10T15:47:49;16.20;99.90
59301;DHT22;45073;52.740;6.784;2023-05-10T15:50:15;16.20;99.90
59301;DHT22;45073;52.740;6.784;2023-05-10T15:52:41;16.20;99.90
59301;DHT22;45073;52.740;6.784;2023-05-10T15:55:08;16.30;99.90
59301;DHT22;45073;52.740;6.784;2023-05-10T15:57:40;16.30;99.90
59301;DHT22;45073;52.740;6.784;2023-05-10T16:00:08;16.40;99.90
59301;DHT22;45073;52.740;6.784;2023-05-10T16:02:35;16.40;99.90